| time (UTC) | temp C | wind direction | speed KPH | gust KPH | rain 1hr cm | rain 24hr cm | rain mn cm | humidity % | barometer mb |
| 20260505093121 | 2 | 256 | 0.0 | 0.0 | 0.18 | 0.10 | 0.10 | 99 | 1009.7 |
| 20260505092618 | 3 | 257 | 0.0 | 0.0 | 0.30 | 0.10 | 0.10 | 99 | 1009.8 |
| 20260505092118 | 2 | 249 | 0.0 | 0.0 | 0.13 | 0.08 | 0.08 | 99 | 1010.1 |
| 20260505091613 | 3 | 248 | 0.0 | 0.0 | 0.18 | 0.05 | 0.05 | 99 | 1010.1 |
| 20260505091112 | 3 | 247 | 0.0 | 0.0 | 0.18 | 0.05 | 0.05 | 99 | 1010.0 |
| 20260505090609 | 3 | 250 | 0.0 | 0.0 | 0.00 | 0.03 | 0.03 | 99 | 1010.0 |
| 20260505090107 | 3 | 250 | 0.0 | 0.0 | 0.00 | 0.03 | 0.03 | 99 | 1010.0 |
| 20260505085604 | 3 | 245 | 0.0 | 0.0 | 0.13 | 0.03 | 0.03 | 99 | 1009.9 |
| 20260505085103 | 3 | 239 | 0.0 | 0.0 | 0.13 | 0.03 | 0.03 | 99 | 1010.0 |
| 20260505084600 | 3 | 196 | 1.6 | 3.2 | 0.00 | 0.00 | 0.00 | 99 | 1010.0 |
| 20260505084058 | 3 | 235 | 0.0 | 1.6 | 0.00 | 0.00 | 0.00 | 99 | 1009.9 |
| 20260505083555 | 3 | 198 | 1.6 | 1.6 | 0.00 | 0.00 | 0.00 | 99 | 1010.3 |
| 20260505083052 | 3 | 237 | 0.0 | 0.0 | 0.00 | 0.00 | 0.00 | 99 | 1010.1 |
| 20260505082547 | 2 | 289 | 0.0 | 1.6 | 0.00 | 0.00 | 0.00 | 99 | 1010.2 |
| 20260505082045 | 3 | 286 | 0.0 | 1.6 | 0.00 | 0.00 | 0.00 | 99 | 1010.2 |
| 20260505081541 | 2 | 343 | 3.2 | 4.8 | 0.00 | 0.00 | 0.00 | 99 | 1010.4 |
| 20260505081039 | 2 | 275 | 0.0 | 1.6 | 0.00 | 0.00 | 0.00 | 99 | 1010.4 |
| 20260505080534 | 2 | 288 | 1.6 | 3.2 | 0.00 | 0.00 | 0.00 | 99 | 1010.5 |
| 20260505080031 | 2 | 299 | 1.6 | 3.2 | 0.00 | 0.00 | 0.00 | 99 | 1010.5 |
| 20260505075527 | 2 | 278 | 0.0 | 0.0 | 0.00 | 3.23 | 3.23 | 99 | 1010.6 |
| 20260505075024 | 2 | 326 | 1.6 | 1.6 | 0.00 | 3.23 | 3.23 | 99 | 1010.8 |
| 20260505074521 | 2 | 292 | 0.0 | 0.0 | 0.00 | 3.23 | 3.23 | 99 | 1010.8 |
| 20260505074018 | 2 | 277 | 0.0 | 1.6 | 0.18 | 3.23 | 3.23 | 99 | 1010.8 |
| 20260505073516 | 2 | 275 | 0.0 | 0.0 | 0.18 | 3.23 | 3.23 | 99 | 1010.9 |
| 20260505073014 | 2 | 275 | 0.0 | 0.0 | 0.00 | 3.20 | 3.20 | 99 | 1010.8 |
| 20260505072510 | 3 | 267 | 0.0 | 0.0 | 0.13 | 3.20 | 3.20 | 99 | 1011.0 |
| 20260505072006 | 3 | 267 | 0.0 | 0.0 | 0.13 | 3.20 | 3.20 | 99 | 1011.1 |
| 20260505071501 | 3 | 268 | 0.0 | 0.0 | 0.00 | 3.17 | 3.17 | 99 | 1010.9 |
| 20260505070959 | 3 | 263 | 0.0 | 0.0 | 0.00 | 3.17 | 3.17 | 99 | 1011.1 |
| 20260505070456 | 3 | 245 | 0.0 | 0.0 | 0.18 | 3.17 | 3.17 | 99 | 1011.2 |
| 20260505065952 | 3 | 227 | 0.0 | 3.2 | 0.18 | 3.17 | 3.17 | 99 | 1011.4 |
| 20260505065448 | 3 | 243 | 0.0 | 1.6 | 0.00 | 3.15 | 3.15 | 99 | 1011.1 |
| 20260505064945 | 3 | 248 | 0.0 | 0.0 | 0.00 | 3.15 | 3.15 | 99 | 1011.3 |
| 20260505064442 | 2 | 259 | 0.0 | 0.0 | 0.00 | 3.15 | 3.15 | 99 | 1011.1 |
| 20260505063940 | 3 | 272 | 0.0 | 0.0 | 0.00 | 3.15 | 3.15 | 99 | 1011.2 |
| 20260505063437 | 3 | 273 | 0.0 | 1.6 | 0.00 | 3.15 | 3.15 | 99 | 1011.3 |
| 20260505062933 | 3 | 262 | 0.0 | 1.6 | 0.00 | 3.15 | 3.15 | 99 | 1011.3 |
| 20260505062431 | 3 | 263 | 0.0 | 0.0 | 0.00 | 3.15 | 3.15 | 99 | 1011.4 |
| 20260505061927 | 3 | 268 | 0.0 | 0.0 | 0.00 | 3.15 | 3.15 | 99 | 1011.5 |
| 20260505061426 | 3 | 302 | 1.6 | 4.8 | 0.00 | 3.15 | 3.15 | 99 | 1011.6 |
| 20260505060923 | 3 | 323 | 4.8 | 4.8 | 0.00 | 3.15 | 3.15 | 99 | 1011.6 |
| 20260505060420 | 3 | 316 | 3.2 | 4.8 | 0.00 | 3.15 | 3.15 | 99 | 1011.6 |
| 20260505055916 | 3 | 309 | 1.6 | 4.8 | 0.00 | 3.15 | 3.15 | 99 | 1011.7 |
| 20260505055412 | 3 | 300 | 3.2 | 4.8 | 0.00 | 3.15 | 3.15 | 99 | 1011.9 |
| 20260505054909 | 3 | 358 | 4.8 | 4.8 | 0.00 | 3.15 | 3.15 | 99 | 1012.0 |
| 20260505054406 | 2 | 339 | 4.8 | 4.8 | 0.00 | 3.15 | 3.15 | 99 | 1012.1 |
| 20260505053904 | 3 | 273 | 0.0 | 3.2 | 0.00 | 3.15 | 3.15 | 99 | 1012.3 |
| 20260505053401 | 2 | 294 | 0.0 | 1.6 | 0.00 | 3.15 | 3.15 | 99 | 1012.3 |
| 20260505052857 | 3 | 279 | 0.0 | 0.0 | 0.00 | 3.15 | 3.15 | 99 | 1012.3 |
| 20260505052354 | 3 | 276 | 0.0 | 0.0 | 0.00 | 3.15 | 3.15 | 99 | 1012.2 |
| 20260505051852 | 3 | 284 | 0.0 | 0.0 | 0.00 | 3.15 | 3.15 | 99 | 1012.4 |
| 20260505051348 | 3 | 255 | 0.0 | 0.0 | 0.00 | 3.15 | 3.15 | 99 | 1012.5 |
| 20260505050847 | 3 | 247 | 0.0 | 0.0 | 0.13 | 3.15 | 3.15 | 99 | 1012.6 |
| 20260505050345 | 3 | 245 | 0.0 | 0.0 | 0.00 | 3.12 | 3.12 | 99 | 1012.7 |
| 20260505041313 | 3 | 268 | 0.0 | 0.0 | 0.00 | 3.12 | 3.12 | 99 | 1013.2 |
| 20260505040810 | 3 | 265 | 0.0 | 0.0 | 0.00 | 3.12 | 3.12 | 99 | 1013.5 |
| 20260505040308 | 3 | 326 | 1.6 | 3.2 | 0.00 | 3.12 | 3.12 | 99 | 1013.4 |
| 20260505035804 | 3 | 276 | 0.0 | 1.6 | 0.00 | 3.12 | 3.12 | 99 | 1013.4 |
| 20260505035259 | 3 | 278 | 0.0 | 0.0 | 0.00 | 3.12 | 3.12 | 99 | 1013.7 |
| 20260505034756 | 3 | 270 | 0.0 | 0.0 | 0.18 | 3.12 | 3.12 | 99 | 1013.8 |
| 20260505034253 | 3 | 275 | 0.0 | 0.0 | 0.18 | 3.12 | 3.12 | 99 | 1013.6 |
| 20260505033750 | 3 | 249 | 0.0 | 0.0 | 0.00 | 3.10 | 3.10 | 99 | 1013.9 |
| 20260505033248 | 3 | 248 | 0.0 | 0.0 | 0.00 | 3.10 | 3.10 | 99 | 1014.2 |
| 20260505032745 | 3 | 254 | 0.0 | 0.0 | 0.00 | 3.10 | 3.10 | 99 | 1014.1 |
| 20260505032241 | 3 | 248 | 0.0 | 0.0 | 0.00 | 3.10 | 3.10 | 99 | 1014.1 |
| 20260505031739 | 3 | 247 | 0.0 | 0.0 | 0.00 | 3.10 | 3.10 | 99 | 1014.4 |
| 20260505031235 | 3 | 247 | 0.0 | 0.0 | 0.00 | 3.10 | 3.10 | 99 | 1014.3 |
| 20260505030732 | 3 | 225 | 0.0 | 1.6 | 0.00 | 3.10 | 3.10 | 99 | 1014.6 |
| 20260505030228 | 3 | 247 | 0.0 | 0.0 | 0.00 | 3.10 | 3.10 | 99 | 1014.4 |
| 20260505025724 | 3 | 247 | 0.0 | 0.0 | 0.13 | 3.10 | 3.10 | 99 | 1014.6 |
| 20260505025222 | 3 | 213 | 0.0 | 1.6 | 0.13 | 3.10 | 3.10 | 99 | 1014.7 |
| 20260505024720 | 3 | 250 | 0.0 | 0.0 | 0.30 | 3.07 | 3.07 | 99 | 1014.6 |
| 20260505024217 | 3 | 247 | 0.0 | 0.0 | 0.48 | 3.07 | 3.07 | 99 | 1014.7 |
| 20260505023714 | 3 | 244 | 0.0 | 0.0 | 0.36 | 3.02 | 3.02 | 99 | 1014.8 |
| 20260505023211 | 3 | 188 | 1.6 | 1.6 | 0.30 | 3.00 | 3.00 | 99 | 1014.8 |
| 20260505022710 | 3 | 251 | 0.0 | 0.0 | 0.30 | 2.97 | 2.97 | 99 | 1015.1 |
| 20260505022206 | 3 | 166 | 1.6 | 3.2 | 0.48 | 2.95 | 2.95 | 99 | 1015.2 |
| 20260505021703 | 3 | 192 | 1.6 | 1.6 | 0.61 | 2.92 | 2.92 | 99 | 1015.3 |
| 20260505021200 | 3 | 206 | 1.6 | 1.6 | 0.61 | 2.87 | 2.87 | 99 | 1015.3 |
| 20260505020655 | 3 | 186 | 1.6 | 1.6 | 0.61 | 2.82 | 2.82 | 99 | 1015.3 |
| 20260505020151 | 3 | 271 | 0.0 | 0.0 | 0.61 | 2.77 | 2.77 | 99 | 1015.4 |
| 20260505015648 | 3 | 261 | 0.0 | 0.0 | 0.79 | 2.72 | 2.72 | 99 | 1015.5 |
| 20260505015145 | 3 | 252 | 0.0 | 0.0 | 0.79 | 2.67 | 2.67 | 99 | 1015.6 |
| 20260505014641 | 3 | 250 | 0.0 | 0.0 | 0.43 | 2.59 | 2.59 | 99 | 1015.7 |
| 20260505014139 | 3 | 241 | 0.0 | 0.0 | 0.30 | 2.54 | 2.54 | 99 | 1015.8 |
| 20260505013636 | 3 | 238 | 0.0 | 1.6 | 0.48 | 2.51 | 2.51 | 99 | 1016.2 |
| 20260505013134 | 3 | 156 | 3.2 | 3.2 | 0.43 | 2.49 | 2.49 | 99 | 1016.1 |
| 20260505012632 | 3 | 91 | 3.2 | 4.8 | 0.30 | 2.44 | 2.44 | 99 | 1015.9 |
| 20260505012128 | 3 | 228 | 0.0 | 3.2 | 0.30 | 2.41 | 2.41 | 99 | 1016.3 |
| 20260505011623 | 3 | 205 | 1.6 | 1.6 | 0.30 | 2.39 | 2.39 | 99 | 1015.9 |
| 20260505011121 | 3 | 223 | 0.0 | 0.0 | 0.36 | 2.36 | 2.36 | 99 | 1016.0 |
| 20260505010616 | 3 | 259 | 1.6 | 3.2 | 0.48 | 2.34 | 2.34 | 99 | 1015.9 |
| 20260505010113 | 3 | 265 | 0.0 | 0.0 | 0.48 | 2.29 | 2.29 | 99 | 1016.3 |
| 20260505005609 | 3 | 264 | 0.0 | 0.0 | 0.43 | 2.26 | 2.26 | 99 | 1016.3 |
| 20260505005102 | 3 | 264 | 0.0 | 0.0 | 0.30 | 2.21 | 2.21 | 99 | 1016.2 |
| 20260505004559 | 3 | 264 | 0.0 | 0.0 | 0.30 | 2.18 | 2.18 | 99 | 1016.3 |
| 20260505004055 | 3 | 264 | 0.0 | 0.0 | 0.30 | 2.16 | 2.16 | 99 | 1016.6 |
| 20260505003552 | 3 | 264 | 0.0 | 0.0 | 0.30 | 2.13 | 2.13 | 99 | 1016.9 |
| 20260505003050 | 3 | 265 | 0.0 | 0.0 | 0.30 | 2.11 | 2.11 | 99 | 1016.8 |
| 20260505002549 | 3 | 264 | 0.0 | 0.0 | 0.36 | 2.08 | 2.08 | 99 | 1016.6 |
| 20260505002043 | 3 | 264 | 0.0 | 0.0 | 0.30 | 2.06 | 2.06 | 99 | 1016.7 |
| 20260505001540 | 3 | 264 | 0.0 | 0.0 | 0.30 | 2.03 | 2.03 | 99 | 1016.7 |
| 20260505001037 | 3 | 264 | 0.0 | 0.0 | 0.30 | 2.01 | 2.01 | 99 | 1016.6 |
| 20260505000535 | 3 | 264 | 0.0 | 0.0 | 0.13 | 1.98 | 1.98 | 99 | 1016.9 |
| 20260505000032 | 3 | 264 | 0.0 | 0.0 | 0.18 | 1.96 | 1.96 | 99 | 1017.2 |
| 20260504235529 | 3 | 264 | 0.0 | 0.0 | 0.30 | 1.96 | 1.96 | 99 | 1017.1 |
| 20260504235025 | 3 | 264 | 0.0 | 0.0 | 0.18 | 1.91 | 1.91 | 99 | 1017.0 |
| 20260504234522 | 3 | 264 | 0.0 | 0.0 | 0.30 | 1.91 | 1.91 | 99 | 1017.4 |
| 20260504234019 | 3 | 265 | 0.0 | 1.6 | 0.13 | 1.88 | 1.88 | 99 | 1017.5 |
| 20260504233514 | 3 | 264 | 0.0 | 1.6 | 0.18 | 1.85 | 1.85 | 99 | 1017.3 |
| 20260504233012 | 3 | 263 | 1.6 | 1.6 | 0.18 | 1.85 | 1.85 | 99 | 1017.5 |
| 20260504232509 | 3 | 262 | 0.0 | 0.0 | 0.13 | 1.83 | 1.83 | 99 | 1017.8 |
| 20260504232006 | 3 | 263 | 0.0 | 1.6 | 0.13 | 1.83 | 1.83 | 99 | 1018.0 |
| 20260504231502 | 3 | 264 | 1.6 | 1.6 | 0.00 | 1.80 | 1.80 | 99 | 1018.0 |
| 20260504230959 | 3 | 265 | 3.2 | 3.2 | 0.00 | 1.80 | 1.80 | 99 | 1018.3 |
| 20260504230456 | 3 | 264 | 1.6 | 1.6 | 0.18 | 1.80 | 1.80 | 99 | 1018.3 |
| 20260504225955 | 4 | 260 | 0.0 | 0.0 | 0.00 | 1.78 | 1.78 | 99 | 1018.4 |
| 20260504225451 | 4 | 260 | 0.0 | 1.6 | 0.00 | 1.78 | 1.78 | 99 | 1018.6 |
| 20260504224948 | 4 | 250 | 1.6 | 1.6 | 0.00 | 1.78 | 1.78 | 99 | 1018.7 |
| 20260504224445 | 4 | 259 | 0.0 | 0.0 | 0.00 | 1.78 | 1.78 | 99 | 1018.7 |
| 20260504223942 | 5 | 257 | 0.0 | 0.0 | 0.00 | 1.78 | 1.78 | 99 | 1018.8 |
| 20260504223438 | 5 | 257 | 0.0 | 0.0 | 0.00 | 1.78 | 1.78 | 99 | 1018.9 |
| 20260504222933 | 5 | 257 | 0.0 | 0.0 | 0.00 | 1.78 | 1.78 | 99 | 1019.0 |
| 20260504222431 | 5 | 256 | 0.0 | 0.0 | 0.00 | 1.78 | 1.78 | 99 | 1019.3 |
| 20260504221929 | 4 | 256 | 0.0 | 0.0 | 0.00 | 1.78 | 1.78 | 99 | 1019.3 |
| 20260504221426 | 4 | 253 | 0.0 | 0.0 | 0.00 | 1.78 | 1.78 | 99 | 1019.4 |
| 20260504220923 | 4 | 247 | 0.0 | 0.0 | 0.00 | 1.78 | 1.78 | 99 | 1019.3 |
| 20260504220419 | 4 | 246 | 0.0 | 0.0 | 0.13 | 1.78 | 1.78 | 99 | 1019.4 |
| 20260504215916 | 4 | 241 | 0.0 | 0.0 | 0.13 | 1.78 | 1.78 | 99 | 1019.4 |
| 20260504215413 | 3 | 241 | 0.0 | 0.0 | 0.00 | 1.75 | 1.75 | 99 | 1019.6 |
| 20260504214909 | 3 | 240 | 0.0 | 0.0 | 0.00 | 1.75 | 1.75 | 99 | 1019.7 |
| 20260504214406 | 3 | 239 | 0.0 | 1.6 | 0.00 | 1.75 | 1.75 | 99 | 1019.8 |
| 20260504213903 | 3 | 239 | 0.0 | 0.0 | 0.18 | 1.75 | 1.75 | 99 | 1019.7 |
| 20260504213359 | 3 | 232 | 0.0 | 3.2 | 0.18 | 1.75 | 1.75 | 99 | 1019.7 |
| 20260504212857 | 3 | 219 | 0.0 | 3.2 | 0.00 | 1.73 | 1.73 | 99 | 1020.0 |
| 20260504212352 | 3 | 188 | 0.0 | 1.6 | 0.18 | 1.73 | 1.73 | 99 | 1020.0 |
| 20260504211850 | 3 | 234 | 0.0 | 0.0 | 0.18 | 1.73 | 1.73 | 99 | 1019.9 |
| 20260504211346 | 3 | 259 | 0.0 | 0.0 | 0.00 | 1.70 | 1.70 | 99 | 1020.0 |
| 20260504210844 | 3 | 256 | 0.0 | 0.0 | 0.00 | 1.70 | 1.70 | 99 | 1020.0 |
| 20260504210340 | 3 | 255 | 0.0 | 0.0 | 0.00 | 1.70 | 1.70 | 99 | 1020.3 |
| 20260504205837 | 3 | 242 | 0.0 | 1.6 | 0.00 | 1.70 | 1.70 | 99 | 1020.5 |
| 20260504205335 | 3 | 241 | 0.0 | 1.6 | 0.00 | 1.70 | 1.70 | 99 | 1020.6 |
| 20260504204833 | 3 | 209 | 1.6 | 1.6 | 0.00 | 1.70 | 1.70 | 99 | 1020.5 |
| 20260504204332 | 3 | 258 | 0.0 | 0.0 | 0.00 | 1.70 | 1.70 | 99 | 1020.4 |
| 20260504203830 | 3 | 260 | 0.0 | 0.0 | 0.00 | 1.70 | 1.70 | 99 | 1020.5 |
| 20260504203327 | 3 | 257 | 0.0 | 0.0 | 0.00 | 1.70 | 1.70 | 99 | 1021.0 |
| 20260504202823 | 3 | 257 | 0.0 | 0.0 | 0.00 | 1.70 | 1.70 | 99 | 1020.9 |
| 20260504202320 | 3 | 248 | 0.0 | 0.0 | 0.13 | 1.70 | 1.70 | 99 | 1021.1 |
| 20260504201817 | 2 | 244 | 0.0 | 1.6 | 0.13 | 1.70 | 1.70 | 99 | 1021.3 |
| 20260504201314 | 3 | 265 | 0.0 | 0.0 | 0.00 | 1.68 | 1.68 | 99 | 1021.1 |
| 20260504200811 | 3 | 265 | 0.0 | 0.0 | 0.00 | 1.68 | 1.68 | 99 | 1021.2 |
| 20260504200308 | 2 | 266 | 0.0 | 0.0 | 0.00 | 1.68 | 1.68 | 99 | 1021.2 |
| 20260504195804 | 2 | 264 | 0.0 | 0.0 | 0.18 | 1.68 | 1.68 | 99 | 1021.3 |
| 20260504195300 | 2 | 269 | 0.0 | 0.0 | 0.18 | 1.68 | 1.68 | 99 | 1021.5 |
| 20260504194757 | 2 | 262 | 0.0 | 0.0 | 0.13 | 1.65 | 1.65 | 99 | 1021.5 |
| 20260504194253 | 2 | 249 | 0.0 | 0.0 | 0.13 | 1.65 | 1.65 | 99 | 1021.7 |
| 20260504193749 | 2 | 249 | 0.0 | 0.0 | 0.00 | 1.63 | 1.63 | 99 | 1021.7 |
| 20260504193247 | 2 | 249 | 0.0 | 0.0 | 0.18 | 1.63 | 1.63 | 99 | 1021.8 |
| 20260504192745 | 2 | 246 | 0.0 | 0.0 | 0.13 | 1.60 | 1.60 | 99 | 1021.9 |
| 20260504192243 | 2 | 252 | 0.0 | 0.0 | 0.13 | 1.60 | 1.60 | 99 | 1021.8 |
| 20260504191741 | 2 | 252 | 0.0 | 1.6 | 0.18 | 1.57 | 1.57 | 99 | 1021.9 |
| 20260504191238 | 2 | 252 | 0.0 | 0.0 | 0.18 | 1.57 | 1.57 | 99 | 1022.1 |
| 20260504190733 | 2 | 252 | 0.0 | 0.0 | 0.13 | 1.55 | 1.55 | 99 | 1022.2 |
| 20260504190230 | 2 | 241 | 0.0 | 0.0 | 0.18 | 1.52 | 1.52 | 99 | 1022.3 |
| 20260504185727 | 2 | 244 | 0.0 | 0.0 | 0.30 | 1.52 | 1.52 | 99 | 1022.2 |
| 20260504185224 | 2 | 242 | 0.0 | 0.0 | 0.30 | 1.50 | 1.50 | 99 | 1022.1 |
| 20260504184720 | 2 | 242 | 0.0 | 0.0 | 0.30 | 1.47 | 1.47 | 99 | 1022.2 |
| 20260504184216 | 1 | 239 | 0.0 | 0.0 | 0.30 | 1.45 | 1.45 | 99 | 1022.2 |
| 20260504183712 | 1 | 229 | 0.0 | 1.6 | 0.36 | 1.42 | 1.42 | 99 | 1022.3 |
| 20260504183209 | 1 | 222 | 0.0 | 0.0 | 0.18 | 1.40 | 1.40 | 99 | 1022.4 |
| 20260504182707 | 1 | 197 | 0.0 | 1.6 | 0.30 | 1.37 | 1.37 | 99 | 1022.5 |
| 20260504182204 | 1 | 188 | 1.6 | 1.6 | 0.30 | 1.37 | 1.37 | 99 | 1022.6 |
| 20260504181701 | 1 | 224 | 0.0 | 3.2 | 0.13 | 1.32 | 1.32 | 99 | 1022.5 |
| 20260504181159 | 1 | 201 | 0.0 | 3.2 | 0.30 | 1.30 | 1.30 | 99 | 1022.6 |
| 20260504180658 | 1 | 222 | 0.0 | 0.0 | 0.30 | 1.30 | 1.30 | 99 | 1022.6 |
| 20260504180156 | 1 | 177 | 1.6 | 1.6 | 0.00 | 1.24 | 1.24 | 99 | 1022.6 |
| 20260504175653 | 1 | 170 | 0.0 | 1.6 | 0.00 | 1.24 | 1.24 | 99 | 1022.9 |
| 20260504175149 | 1 | 222 | 0.0 | 0.0 | 0.00 | 1.24 | 1.24 | 99 | 1023.0 |
| 20260504174647 | 1 | 235 | 0.0 | 0.0 | 0.00 | 1.24 | 1.24 | 99 | 1023.0 |
| 20260504174144 | 1 | 235 | 0.0 | 0.0 | 0.00 | 1.24 | 1.24 | 99 | 1022.9 |
| 20260504173641 | 1 | 229 | 0.0 | 0.0 | 0.00 | 1.24 | 1.24 | 99 | 1023.0 |
| 20260504173138 | 1 | 244 | 0.0 | 0.0 | 0.00 | 1.24 | 1.24 | 99 | 1023.0 |
| 20260504172635 | 1 | 235 | 0.0 | 0.0 | 0.00 | 1.24 | 1.24 | 99 | 1023.0 |
| 20260504172131 | 1 | 268 | 0.0 | 0.0 | 0.00 | 1.24 | 1.24 | 99 | 1023.2 |
| 20260504171627 | 1 | 275 | 0.0 | 0.0 | 0.00 | 1.24 | 1.24 | 99 | 1023.1 |
| 20260504171125 | 1 | 271 | 0.0 | 0.0 | 0.00 | 1.24 | 1.24 | 99 | 1023.2 |
| 20260504170621 | 1 | 269 | 0.0 | 0.0 | 0.00 | 1.24 | 1.24 | 99 | 1023.2 |
| 20260504170119 | 1 | 269 | 0.0 | 0.0 | 0.00 | 1.24 | 1.24 | 99 | 1023.3 |
| 20260504151004 | 0 | 230 | 0.0 | 0.0 | 0.18 | 0.97 | 0.97 | 99 | 1023.9 |
| 20260504150502 | 0 | 230 | 0.0 | 0.0 | 0.13 | 0.94 | 0.94 | 99 | 1023.7 |
| 20260504140927 | 0 | 229 | 0.0 | 0.0 | 0.18 | 0.81 | 0.81 | 99 | 1024.3 |
| 20260504140424 | 0 | 230 | 0.0 | 0.0 | 0.18 | 0.79 | 0.79 | 99 | 1024.2 |
| 20260504130349 | 0 | 229 | 0.0 | 0.0 | 0.13 | 0.61 | 0.61 | 99 | 1024.2 |
| 20260504120311 | 0 | 229 | 0.0 | 0.0 | 0.30 | 0.46 | 0.46 | 99 | 1024.7 |
| 20260504110235 | 0 | 239 | 0.0 | 0.0 | 0.13 | 0.23 | 0.23 | 99 | 1025.3 |
| 20260504100159 | 0 | 245 | 0.0 | 0.0 | 0.00 | 0.10 | 0.10 | 99 | 1025.4 |